Time;durP1;ratioP1;P1;durP2;ratioP2;P2;SDS_P1;SDS_P2;PMS_P1;PMS_P2;Temp;Humidity;BMP_temperature;BMP_pressure;BME280_temperature;BME280_humidity;BME280_pressure;Samples;Min_cycle;Max_cycle;Signal;HPM_P1;HPM_P2
2023/12/11 00:00:38;;;;;;;24.30;13.80;;;;;;;-1.12;88.00;95474.38;106422;1277;22642;-76
2023/12/11 00:03:27;;;;;;;26.50;13.60;;;;;;;-1.14;88.40;95476.94;106436;1277;24370;-76
2023/12/11 00:05:55;;;;;;;30.40;14.90;;;;;;;-1.16;88.28;95474.46;106436;1277;25447;-76
2023/12/11 00:08:24;;;;;;;30.50;15.00;;;;;;;-1.18;88.34;95474.93;106399;1277;22943;-77
2023/12/11 00:10:52;;;;;;;33.80;15.90;;;;;;;-1.18;88.39;95479.61;106771;1277;22581;-77
2023/12/11 00:13:21;;;;;;;35.50;17.50;;;;;;;-1.17;88.17;95478.23;106797;1256;22523;-76
2023/12/11 00:15:49;;;;;;;38.40;18.10;;;;;;;-1.15;88.15;95481.58;106538;1277;22782;-76
2023/12/11 00:18:17;;;;;;;35.30;18.10;;;;;;;-1.14;88.01;95477.98;106457;1277;22534;-76
2023/12/11 00:20:46;;;;;;;36.60;16.70;;;;;;;-1.14;88.44;95474.50;106455;1277;22737;-76
2023/12/11 00:23:14;;;;;;;33.20;17.20;;;;;;;-1.12;88.73;95470.08;106749;1277;22591;-77
2023/12/11 00:25:46;;;;;;;31.60;15.60;;;;;;;-1.03;88.89;95465.98;106747;1277;22739;-76
2023/12/11 00:28:15;;;;;;;30.70;16.30;;;;;;;-0.96;88.84;95464.23;106619;1277;22661;-76
2023/12/11 00:30:43;;;;;;;30.10;16.10;;;;;;;-0.90;88.80;95459.70;106439;1277;24293;-76
2023/12/11 00:33:11;;;;;;;32.50;16.50;;;;;;;-0.83;88.93;95464.01;106411;1267;22550;-76
2023/12/11 00:35:40;;;;;;;30.20;16.00;;;;;;;-0.74;88.89;95465.95;106685;1277;25295;-77
2023/12/11 00:38:09;;;;;;;31.70;16.10;;;;;;;-0.67;88.47;95468.70;106787;1277;25347;-76
2023/12/11 00:40:37;;;;;;;31.30;15.90;;;;;;;-0.58;88.62;95472.35;106445;1277;23655;-77
2023/12/11 00:43:05;;;;;;;29.40;16.60;;;;;;;-0.52;87.86;95470.23;106430;1277;22579;-76
2023/12/11 00:45:33;;;;;;;30.10;16.10;;;;;;;-0.55;87.45;95461.88;106452;1277;22659;-77
2023/12/11 00:48:01;;;;;;;33.10;15.40;;;;;;;-0.53;87.38;95458.83;106422;1277;25362;-76
2023/12/11 00:50:30;;;;;;;31.50;16.70;;;;;;;-0.56;86.91;95454.23;106396;1277;25512;-76
2023/12/11 00:52:58;;;;;;;30.50;15.90;;;;;;;-0.60;87.05;95446.73;106482;1277;23881;-76
2023/12/11 00:55:26;;;;;;;31.80;16.50;;;;;;;-0.59;87.24;95442.61;106415;1277;22657;-76
2023/12/11 00:57:55;;;;;;;30.00;16.10;;;;;;;-0.59;87.04;95445.73;106447;1277;22649;-76
2023/12/11 01:00:23;;;;;;;33.60;18.40;;;;;;;-0.52;87.71;95444.33;106480;1277;24256;-76
2023/12/11 01:02:51;;;;;;;30.70;16.80;;;;;;;-0.36;87.99;95437.73;106519;1277;22523;-76
2023/12/11 01:05:19;;;;;;;29.40;15.30;;;;;;;-0.27;87.24;95436.89;106503;1277;24209;-76
2023/12/11 01:07:47;;;;;;;30.00;16.60;;;;;;;-0.24;86.88;95430.04;106719;1277;24093;-77
2023/12/11 01:10:16;;;;;;;30.90;16.00;;;;;;;-0.15;87.27;95428.48;106721;1277;22577;-76
2023/12/11 01:12:44;;;;;;;28.90;15.30;;;;;;;-0.12;86.32;95422.84;106650;1277;22534;-76
2023/12/11 01:15:12;;;;;;;30.30;17.00;;;;;;;-0.17;85.86;95423.59;106473;1277;24262;-77
2023/12/11 01:17:41;;;;;;;32.10;16.70;;;;;;;-0.19;86.03;95422.01;106393;1277;22645;-76
2023/12/11 01:20:12;;;;;;;32.30;17.50;;;;;;;-0.25;85.62;95425.71;106614;1277;22531;-76
2023/12/11 01:22:41;;;;;;;33.60;16.90;;;;;;;-0.36;85.52;95429.28;106443;1277;22669;-76
2023/12/11 01:25:09;;;;;;;30.30;16.20;;;;;;;-0.44;85.67;95425.48;106391;1277;22524;-76
2023/12/11 01:27:38;;;;;;;34.00;17.50;;;;;;;-0.47;86.12;95422.48;106483;1277;24230;-76
2023/12/11 01:30:07;;;;;;;31.20;16.50;;;;;;;-0.48;86.34;95427.13;106451;1272;22614;-76
2023/12/11 01:32:35;;;;;;;32.40;17.40;;;;;;;-0.55;86.21;95428.02;106458;1277;25554;-76
2023/12/11 01:35:03;;;;;;;27.30;15.70;;;;;;;-0.60;86.33;95430.83;106423;1277;22649;-77
2023/12/11 01:37:32;;;;;;;29.40;15.60;;;;;;;-0.71;86.23;95424.21;106392;1267;25361;-76
2023/12/11 01:40:00;;;;;;;29.00;15.30;;;;;;;-0.84;85.99;95417.88;106429;1277;22530;-77
2023/12/11 01:42:28;;;;;;;30.40;15.80;;;;;;;-1.01;85.81;95407.49;106467;1277;22540;-77
2023/12/11 01:44:56;;;;;;;31.40;16.10;;;;;;;-1.15;86.00;95403.90;106451;1277;22520;-76
2023/12/11 01:47:24;;;;;;;32.90;16.00;;;;;;;-1.27;86.09;95413.10;106439;1277;25433;-77
2023/12/11 01:49:53;;;;;;;29.40;15.20;;;;;;;-1.37;86.32;95411.30;106545;1277;25380;-76
2023/12/11 01:52:22;;;;;;;37.60;18.60;;;;;;;-1.47;86.53;95409.70;106460;1277;22527;-77
2023/12/11 01:54:51;;;;;;;38.80;18.90;;;;;;;-1.53;86.80;95414.72;106518;1255;22639;-77
2023/12/11 01:57:19;;;;;;;34.00;18.20;;;;;;;-1.59;87.03;95414.75;106595;1277;24242;-77
2023/12/11 01:59:48;;;;;;;33.50;17.10;;;;;;;-1.66;87.04;95418.19;106630;1277;25304;-77
2023/12/11 02:02:19;;;;;;;29.40;14.70;;;;;;;-1.79;86.87;95418.20;106773;1276;22520;-77
2023/12/11 02:04:53;;;;;;;26.20;13.70;;;;;;;-1.94;86.76;95416.95;106463;1277;26541;-77
2023/12/11 02:07:22;;;;;;;27.80;14.40;;;;;;;-2.05;86.69;95410.29;106447;1277;22533;-77
2023/12/11 02:09:50;;;;;;;37.30;18.50;;;;;;;-2.13;86.71;95411.62;106518;1277;22665;-77
2023/12/11 02:12:19;;;;;;;37.70;19.40;;;;;;;-2.15;87.02;95412.95;106417;1277;22546;-76
2023/12/11 02:14:47;;;;;;;38.20;18.40;;;;;;;-2.15;87.35;95407.41;106468;1277;24233;-77
2023/12/11 02:17:15;;;;;;;39.00;18.20;;;;;;;-2.20;87.31;95403.00;106475;1277;22529;-77
2023/12/11 02:19:44;;;;;;;32.10;17.00;;;;;;;-2.25;87.38;95405.09;106578;1277;24521;-77
2023/12/11 02:22:13;;;;;;;35.50;16.60;;;;;;;-2.24;87.82;95413.57;106454;1277;24454;-77
2023/12/11 02:24:58;;;;;;;31.50;16.80;;;;;;;-2.20;87.88;95421.60;106474;1277;22589;-77
2023/12/11 02:27:26;;;;;;;30.40;15.10;;;;;;;-2.17;87.80;95425.82;106448;1277;23245;-77
2023/12/11 02:29:56;;;;;;;32.30;16.10;;;;;;;-2.07;88.10;95426.94;106481;1277;25510;-77
2023/12/11 02:32:24;;;;;;;30.90;15.10;;;;;;;-1.95;88.21;95428.46;106454;1277;22816;-77
2023/12/11 02:34:52;;;;;;;30.20;15.00;;;;;;;-1.95;87.27;95427.28;106455;1277;24258;-77
2023/12/11 02:37:20;;;;;;;36.20;18.40;;;;;;;-1.97;87.10;95431.86;106617;1277;22553;-76
2023/12/11 02:39:48;;;;;;;47.20;21.80;;;;;;;-1.96;87.36;95433.63;106600;1277;25443;-77
2023/12/11 02:42:17;;;;;;;38.20;18.80;;;;;;;-1.86;87.52;95440.43;106595;1277;22656;-77
2023/12/11 02:44:45;;;;;;;31.50;15.60;;;;;;;-1.75;87.53;95443.48;106609;1276;24245;-77
2023/12/11 02:47:13;;;;;;;37.40;17.80;;;;;;;-1.74;87.13;95438.52;106376;1277;24381;-77
2023/12/11 02:49:41;;;;;;;36.50;18.90;;;;;;;-1.73;87.38;95430.42;106434;1277;24357;-77
2023/12/11 02:52:10;;;;;;;40.60;19.90;;;;;;;-1.66;87.67;95427.34;106408;1277;23902;-77
2023/12/11 02:54:38;;;;;;;40.80;18.90;;;;;;;-1.62;87.36;95436.56;106547;1277;24212;-77
2023/12/11 02:57:06;;;;;;;26.60;13.60;;;;;;;-1.56;87.43;95438.79;106435;1277;25500;-77
2023/12/11 02:59:34;;;;;;;22.80;12.10;;;;;;;-1.45;87.54;95439.05;106458;1277;25380;-77
2023/12/11 03:02:03;;;;;;;32.60;17.60;;;;;;;-1.38;87.36;95442.69;106373;1277;22770;-76
2023/12/11 03:04:31;;;;;;;46.20;22.80;;;;;;;-1.37;87.23;95442.02;106391;1277;25435;-77
2023/12/11 03:07:00;;;;;;;40.50;20.80;;;;;;;-1.30;87.35;95440.14;106495;1277;22536;-76
2023/12/11 03:09:28;;;;;;;37.90;18.50;;;;;;;-1.21;87.55;95436.02;106724;1277;22528;-77
2023/12/11 03:11:56;;;;;;;35.50;18.30;;;;;;;-1.13;87.29;95439.84;106718;1277;25589;-77
2023/12/11 03:14:24;;;;;;;32.10;17.90;;;;;;;-1.10;86.85;95440.95;106849;1277;22526;-77
2023/12/11 03:16:52;;;;;;;36.30;18.10;;;;;;;-1.08;86.80;95444.79;106724;1277;25382;-77
2023/12/11 03:19:21;;;;;;;31.30;17.40;;;;;;;-1.09;86.43;95448.90;106443;1277;25340;-77
2023/12/11 03:21:49;;;;;;;42.80;18.60;;;;;;;-1.11;86.42;95445.58;106468;1277;25348;-77
2023/12/11 03:24:17;;;;;;;38.30;17.80;;;;;;;-1.13;86.36;95444.84;106575;1277;22683;-76
2023/12/11 03:26:45;;;;;;;35.50;17.60;;;;;;;-1.16;86.44;95444.25;106449;1277;24081;-77
2023/12/11 03:29:13;;;;;;;30.60;16.80;;;;;;;-1.19;86.29;95443.47;106463;1277;24258;-76
2023/12/11 03:31:42;;;;;;;29.20;14.30;;;;;;;-1.25;86.44;95440.94;106442;1277;25297;-77
2023/12/11 03:34:10;;;;;;;24.00;12.30;;;;;;;-1.25;86.59;95437.30;106534;1277;24475;-77
2023/12/11 03:36:38;;;;;;;27.20;13.90;;;;;;;-1.31;86.35;95433.20;106450;1277;23974;-78
2023/12/11 03:39:07;;;;;;;25.20;12.90;;;;;;;-1.34;86.49;95428.63;106622;1277;22544;-77
2023/12/11 03:41:38;;;;;;;29.80;14.20;;;;;;;-1.39;86.34;95425.23;106504;1277;22534;-77
2023/12/11 03:44:07;;;;;;;28.00;14.00;;;;;;;-1.40;86.42;95423.13;106536;1277;22646;-77
2023/12/11 03:46:35;;;;;;;29.90;14.30;;;;;;;-1.44;86.46;95422.52;106438;1277;23898;-77
2023/12/11 03:49:03;;;;;;;31.60;16.30;;;;;;;-1.49;86.88;95418.27;106433;1277;22535;-77
2023/12/11 03:51:32;;;;;;;29.70;14.60;;;;;;;-1.51;87.43;95414.08;106435;1277;24344;-77
2023/12/11 03:54:00;;;;;;;29.80;14.40;;;;;;;-1.52;87.59;95420.77;106368;1277;25310;-77
2023/12/11 03:56:29;;;;;;;34.00;15.20;;;;;;;-1.55;87.57;95426.56;106622;1277;24508;-77
2023/12/11 03:58:57;;;;;;;29.60;15.00;;;;;;;-1.57;87.31;95428.23;106452;1277;22806;-77
2023/12/11 04:01:25;;;;;;;46.10;20.80;;;;;;;-1.56;87.35;95432.23;106495;1271;22652;-77
2023/12/11 04:03:54;;;;;;;47.20;23.10;;;;;;;-1.59;87.83;95435.45;106325;1277;22591;-77
2023/12/11 04:06:22;;;;;;;41.10;20.00;;;;;;;-1.58;87.79;95440.12;106496;1277;24436;-77
2023/12/11 04:08:51;;;;;;;31.60;16.40;;;;;;;-1.59;87.96;95443.03;106478;1277;22548;-77
2023/12/11 04:11:19;;;;;;;32.20;15.80;;;;;;;-1.59;87.90;95448.21;106429;1277;22636;-77
2023/12/11 04:13:47;;;;;;;34.80;16.60;;;;;;;-1.59;88.02;95452.34;106428;1271;25495;-77
2023/12/11 04:16:15;;;;;;;31.30;15.80;;;;;;;-1.59;87.90;95454.95;106592;1277;24415;-77
2023/12/11 04:18:43;;;;;;;30.90;14.00;;;;;;;-1.58;87.96;95462.03;106751;1277;22534;-77
2023/12/11 04:21:12;;;;;;;66.90;27.40;;;;;;;-1.58;87.72;95457.73;106753;1277;23463;-77
2023/12/11 04:23:40;;;;;;;48.40;23.00;;;;;;;-1.55;87.64;95453.29;106484;1277;24235;-77
2023/12/11 04:26:08;;;;;;;45.80;21.30;;;;;;;-1.53;87.81;95454.05;106452;1277;22540;-77
2023/12/11 04:28:37;;;;;;;37.30;18.70;;;;;;;-1.50;88.18;95459.64;106443;1277;22587;-77
2023/12/11 04:31:05;;;;;;;40.90;19.80;;;;;;;-1.47;88.39;95455.05;106459;1277;24257;-77
2023/12/11 04:33:37;;;;;;;42.20;19.90;;;;;;;-1.44;88.41;95450.48;106510;1261;24394;-77
2023/12/11 04:36:08;;;;;;;37.40;19.70;;;;;;;-1.36;88.65;95446.02;106454;1277;25359;-77
2023/12/11 04:38:36;;;;;;;56.80;33.70;;;;;;;-1.25;88.92;95450.76;106554;1277;22559;-77
2023/12/11 04:41:05;;;;;;;47.10;25.20;;;;;;;-1.16;88.60;95451.15;106473;1277;24217;-77
2023/12/11 04:43:33;;;;;;;72.80;35.10;;;;;;;-1.16;87.80;95450.48;106329;1260;209871;-77
2023/12/11 04:46:01;;;;;;;55.80;27.80;;;;;;;-1.13;87.79;95441.92;106460;1277;24054;-77
2023/12/11 04:48:30;;;;;;;55.80;28.20;;;;;;;-1.12;87.72;95438.82;106456;1277;23150;-77
2023/12/11 04:50:59;;;;;;;70.30;34.20;;;;;;;-1.11;87.37;95440.23;106484;1260;22659;-77
2023/12/11 04:53:27;;;;;;;89.80;40.60;;;;;;;-1.10;87.35;95440.10;106439;1270;22960;-77
2023/12/11 04:55:55;;;;;;;71.00;34.50;;;;;;;-1.03;87.66;95440.77;106403;1277;22529;-77
2023/12/11 04:58:23;;;;;;;51.00;24.80;;;;;;;-1.00;87.28;95439.44;106577;1277;24234;-77
2023/12/11 05:00:52;;;;;;;53.50;25.60;;;;;;;-0.94;87.61;95438.04;106589;1277;22729;-77
2023/12/11 05:03:20;;;;;;;50.40;27.40;;;;;;;-0.81;87.57;95432.27;106426;1277;24258;-77
2023/12/11 05:05:48;;;;;;;50.80;28.30;;;;;;;-0.70;87.42;95428.38;106502;1277;25284;-77
2023/12/11 05:08:16;;;;;;;47.20;24.50;;;;;;;-0.70;86.68;95428.73;106490;1277;22532;-77
2023/12/11 05:10:45;;;;;;;39.40;22.90;;;;;;;-0.67;86.64;95425.52;106428;1277;22623;-77
2023/12/11 05:13:13;;;;;;;50.60;25.60;;;;;;;-0.66;86.61;95424.65;106463;1277;22540;-77
2023/12/11 05:15:41;;;;;;;56.30;28.30;;;;;;;-0.68;86.38;95429.45;106479;1277;25403;-77
2023/12/11 05:18:09;;;;;;;55.60;27.80;;;;;;;-0.72;86.01;95431.78;106452;1277;22540;-77
2023/12/11 05:20:38;;;;;;;55.20;27.20;;;;;;;-0.78;85.89;95437.53;106505;1272;24209;-77
2023/12/11 05:23:06;;;;;;;51.30;26.90;;;;;;;-0.82;86.06;95435.86;106455;1277;23141;-77
2023/12/11 05:25:35;;;;;;;54.00;28.40;;;;;;;-0.89;86.00;95432.29;106525;1277;25387;-76
2023/12/11 05:28:03;;;;;;;47.50;24.90;;;;;;;-0.96;85.96;95429.02;106429;1277;26673;-77
2023/12/11 05:30:31;;;;;;;47.90;24.60;;;;;;;-1.00;86.10;95433.05;106725;1277;24061;-77
2023/12/11 05:33:00;;;;;;;39.80;20.70;;;;;;;-1.00;86.44;95437.39;106478;1277;22562;-77
2023/12/11 05:35:28;;;;;;;42.90;21.80;;;;;;;-1.00;86.48;95443.06;106460;1277;25259;-77
2023/12/11 05:37:57;;;;;;;42.30;20.70;;;;;;;-1.04;86.38;95439.02;106436;1277;25416;-77
2023/12/11 05:40:26;;;;;;;41.10;19.90;;;;;;;-1.09;86.44;95437.87;106550;1277;23955;-77
2023/12/11 05:42:55;;;;;;;42.70;21.00;;;;;;;-1.11;86.55;95438.49;106458;1277;25603;-77
2023/12/11 05:45:23;;;;;;;41.60;21.00;;;;;;;-1.11;86.71;95444.70;106463;1277;22558;-77
2023/12/11 05:47:51;;;;;;;37.60;18.90;;;;;;;-1.14;86.70;95448.10;106481;1277;23595;-77
2023/12/11 05:50:20;;;;;;;40.40;20.30;;;;;;;-1.20;86.51;95450.73;106428;1277;22527;-77
2023/12/11 05:52:48;;;;;;;36.90;18.90;;;;;;;-1.25;86.80;95446.10;106458;1277;23036;-76
2023/12/11 05:55:16;;;;;;;35.40;18.80;;;;;;;-1.25;87.06;95445.60;106493;1277;25362;-76
2023/12/11 05:57:45;;;;;;;32.90;17.40;;;;;;;-1.24;87.28;95451.15;106510;1277;24234;-78
2023/12/11 06:00:16;;;;;;;32.30;16.10;;;;;;;-1.25;87.20;95450.41;106654;1277;24275;-80
2023/12/11 06:02:44;;;;;;;25.50;14.00;;;;;;;-1.27;87.07;95452.95;106920;1277;24220;-80
2023/12/11 06:05:13;;;;;;;29.00;15.70;;;;;;;-1.30;87.00;95455.83;106698;1277;24221;-79
2023/12/11 06:07:41;;;;;;;32.10;14.90;;;;;;;-1.29;87.03;95455.33;106866;1277;24215;-77
2023/12/11 06:10:10;;;;;;;33.20;16.20;;;;;;;-1.26;87.42;95451.96;106838;1277;25623;-76
2023/12/11 06:12:38;;;;;;;53.70;24.00;;;;;;;-1.23;87.76;95452.37;106849;1277;22650;-78
2023/12/11 06:15:07;;;;;;;58.00;24.50;;;;;;;-1.16;87.96;95464.44;106678;1271;22523;-77
2023/12/11 06:17:35;;;;;;;35.10;17.60;;;;;;;-1.12;87.99;95462.31;106807;1277;22546;-77
2023/12/11 06:20:05;;;;;;;57.80;28.00;;;;;;;-1.02;88.32;95466.52;106833;1277;22543;-77
2023/12/11 06:22:33;;;;;;;55.50;27.30;;;;;;;-0.92;88.48;95468.49;106821;1277;25480;-76
2023/12/11 06:25:02;;;;;;;54.90;26.60;;;;;;;-0.82;88.21;95475.09;106785;1277;22619;-77
2023/12/11 06:27:31;;;;;;;46.50;22.80;;;;;;;-0.70;88.31;95475.35;106760;1277;22580;-77
2023/12/11 06:30:00;;;;;;;52.40;23.70;;;;;;;-0.61;88.18;95480.92;106816;1277;22539;-77
2023/12/11 06:32:28;;;;;;;46.00;23.80;;;;;;;-0.53;87.77;95481.63;106754;1277;24380;-76
2023/12/11 06:34:56;;;;;;;44.30;22.60;;;;;;;-0.49;87.45;95493.45;106859;1277;22537;-76
2023/12/11 06:37:25;;;;;;;43.40;22.90;;;;;;;-0.42;87.37;95488.26;106850;1277;22510;-76
2023/12/11 06:39:53;;;;;;;44.90;23.70;;;;;;;-0.31;87.54;95482.61;106569;1277;25436;-77
2023/12/11 06:42:22;;;;;;;43.70;22.70;;;;;;;-0.21;87.63;95477.80;106694;1277;24292;-78
2023/12/11 06:44:50;;;;;;;38.10;19.40;;;;;;;-0.19;87.16;95470.41;106510;1277;24388;-77
2023/12/11 06:47:18;;;;;;;42.20;20.30;;;;;;;-0.19;86.64;95467.29;106509;1277;25257;-78
2023/12/11 06:49:46;;;;;;;35.50;19.60;;;;;;;-0.19;86.15;95468.67;106469;1277;23013;-76
2023/12/11 06:52:15;;;;;;;38.30;22.30;;;;;;;-0.23;85.97;95461.52;106519;1277;22648;-77
2023/12/11 06:54:44;;;;;;;50.40;28.10;;;;;;;-0.16;86.65;95460.98;106469;1277;25383;-77
2023/12/11 06:57:13;;;;;;;57.10;27.70;;;;;;;-0.06;86.76;95467.73;106710;1277;22648;-77
2023/12/11 06:59:41;;;;;;;47.10;24.90;;;;;;;0.03;86.98;95474.66;106517;1277;22533;-76
2023/12/11 07:02:10;;;;;;;45.50;25.60;;;;;;;0.09;86.03;95464.73;106646;1277;22543;-77
2023/12/11 07:04:42;;;;;;;49.10;25.00;;;;;;;0.07;85.75;95461.09;106498;1276;22555;-77
2023/12/11 07:07:10;;;;;;;53.10;26.30;;;;;;;0.07;85.76;95460.05;106524;1277;24491;-76
2023/12/11 07:09:38;;;;;;;57.30;29.70;;;;;;;0.05;85.65;95462.95;106495;1277;23467;-76
2023/12/11 07:12:08;;;;;;;50.60;26.00;;;;;;;0.01;85.31;95463.90;106578;1277;22552;-77
2023/12/11 07:14:36;;;;;;;49.30;26.30;;;;;;;-0.05;85.15;95465.16;106566;1277;22532;-77
2023/12/11 07:17:04;;;;;;;51.70;26.10;;;;;;;-0.11;85.31;95458.46;106773;1277;22565;-77
2023/12/11 07:19:32;;;;;;;46.90;25.90;;;;;;;-0.15;85.64;95449.23;106940;1277;24675;-77
2023/12/11 07:22:00;;;;;;;31.80;17.70;;;;;;;-0.12;85.98;95441.34;106725;1274;25366;-76
2023/12/11 07:24:29;;;;;;;56.00;26.90;;;;;;;-0.13;86.07;95431.46;106665;1273;24384;-78
2023/12/11 07:26:57;;;;;;;28.30;15.50;;;;;;;-0.13;85.96;95436.12;106896;1277;22537;-76
2023/12/11 07:29:26;;;;;;;25.70;17.10;;;;;;;-0.13;86.09;95439.93;106868;1277;22527;-77
2023/12/11 07:31:54;;;;;;;22.80;11.50;;;;;;;-0.12;86.19;95438.92;106811;1277;22526;-76
2023/12/11 07:34:22;;;;;;;20.30;10.80;;;;;;;-0.08;86.27;95451.62;106617;1277;22544;-76
2023/12/11 07:36:51;;;;;;;29.80;13.80;;;;;;;-0.02;86.38;95455.55;106623;1277;22540;-77
2023/12/11 07:39:20;;;;;;;25.90;15.20;;;;;;;0.05;86.42;95445.13;106726;1277;22528;-76
2023/12/11 07:41:48;;;;;;;26.60;15.90;;;;;;;0.13;86.31;95438.19;106665;1277;22529;-77
2023/12/11 07:44:17;;;;;;;33.60;14.80;;;;;;;0.18;86.11;95422.20;106678;1277;25521;-76
2023/12/11 07:46:46;;;;;;;24.00;13.80;;;;;;;0.23;85.93;95421.25;106836;1277;22534;-77
2023/12/11 07:49:14;;;;;;;22.30;13.10;;;;;;;0.29;85.94;95416.51;106820;1277;22801;-76
2023/12/11 07:51:43;;;;;;;21.70;13.70;;;;;;;0.35;85.76;95420.08;106683;1277;22558;-76
2023/12/11 07:54:12;;;;;;;23.50;11.20;;;;;;;0.42;85.86;95415.36;108077;1254;22529;-76
2023/12/11 07:56:40;;;;;;;17.70;10.30;;;;;;;0.48;85.72;95412.69;106553;1277;22796;-76
2023/12/11 07:59:10;;;;;;;17.30;9.40;;;;;;;0.49;85.41;95417.73;106704;1277;22658;-77
2023/12/11 08:01:39;;;;;;;16.80;11.00;;;;;;;0.50;85.34;95413.26;106960;1277;23917;-76
2023/12/11 08:04:08;;;;;;;26.00;14.50;;;;;;;0.52;85.32;95402.54;106658;1277;22614;-75
2023/12/11 08:06:42;;;;;;;29.30;16.50;;;;;;;0.52;85.23;95387.83;106551;1277;22524;-75
2023/12/11 08:09:11;;;;;;;28.40;14.40;;;;;;;0.50;85.09;95388.85;106577;1277;24270;-75
2023/12/11 08:11:39;;;;;;;24.90;15.80;;;;;;;0.46;85.03;95383.75;106812;1277;24343;-75
2023/12/11 08:14:08;;;;;;;40.50;24.00;;;;;;;0.43;84.97;95374.38;106823;1277;24052;-76
2023/12/11 08:16:36;;;;;;;58.40;39.00;;;;;;;0.40;84.91;95374.48;106717;1277;25304;-75
2023/12/11 08:19:04;;;;;;;33.80;21.50;;;;;;;0.39;85.02;95375.69;106574;1277;22530;-76
2023/12/11 08:21:32;;;;;;;46.90;27.70;;;;;;;0.44;85.37;95371.96;106496;1277;22562;-75
2023/12/11 08:24:01;;;;;;;37.60;22.10;;;;;;;0.53;85.70;95372.63;106547;1277;25625;-76
2023/12/11 08:26:29;;;;;;;40.00;25.10;;;;;;;0.65;85.84;95368.32;106692;1277;22530;-75
2023/12/11 08:28:57;;;;;;;26.80;15.30;;;;;;;0.79;85.90;95363.16;106762;1276;22537;-76
2023/12/11 08:31:28;;;;;;;17.50;11.10;;;;;;;0.97;85.97;95367.23;106707;1277;24288;-74
2023/12/11 08:33:56;;;;;;;16.80;10.40;;;;;;;1.13;85.24;95363.14;106677;1277;22771;-75
2023/12/11 08:36:24;;;;;;;20.80;12.20;;;;;;;1.22;84.37;95361.19;106561;1277;23342;-75
2023/12/11 08:38:53;;;;;;;20.70;11.30;;;;;;;1.30;84.04;95360.27;106647;1277;23003;-75
2023/12/11 08:41:21;;;;;;;19.90;11.90;;;;;;;1.43;83.89;95355.90;106864;1265;22543;-75
2023/12/11 08:43:49;;;;;;;18.10;11.30;;;;;;;1.57;84.47;95356.44;106615;1277;22537;-75
2023/12/11 08:46:18;;;;;;;17.40;9.80;;;;;;;1.70;83.62;95351.22;106482;1277;25445;-75
2023/12/11 08:48:46;;;;;;;21.60;10.90;;;;;;;1.82;83.25;95344.06;106565;1277;26546;-75
2023/12/11 08:51:19;;;;;;;20.30;13.90;;;;;;;1.87;83.15;95333.89;106819;1277;24217;-76
2023/12/11 08:53:47;;;;;;;15.50;9.70;;;;;;;1.96;82.92;95328.43;106457;1277;22538;-75
2023/12/11 08:56:18;;;;;;;16.50;10.00;;;;;;;2.06;82.61;95317.42;106476;1277;25164;-75
2023/12/11 08:58:47;;;;;;;19.20;9.90;;;;;;;2.16;82.40;95318.91;106486;1274;23646;-75
2023/12/11 09:01:15;;;;;;;17.20;9.30;;;;;;;2.29;82.44;95320.24;106529;1277;22520;-76
2023/12/11 09:03:44;;;;;;;52.00;25.10;;;;;;;2.39;81.54;95317.90;106693;1276;22781;-75
2023/12/11 09:06:15;;;;;;;28.10;14.50;;;;;;;2.36;80.21;95323.42;106618;1277;22664;-75
2023/12/11 09:08:43;;;;;;;21.90;10.60;;;;;;;2.22;80.50;95327.80;106670;1277;22557;-76
2023/12/11 09:11:12;;;;;;;18.30;11.00;;;;;;;2.12;80.31;95330.85;106597;1277;25435;-75
2023/12/11 09:13:41;;;;;;;19.90;11.20;;;;;;;2.05;80.28;95329.03;106473;1277;24094;-74
2023/12/11 09:16:09;;;;;;;16.70;9.70;;;;;;;1.99;80.47;95331.23;106847;1270;23614;-77
2023/12/11 09:18:38;;;;;;;18.50;10.20;;;;;;;1.93;80.68;95324.41;106778;1277;24762;-76
2023/12/11 09:21:06;;;;;;;15.40;9.80;;;;;;;1.87;80.89;95320.52;106792;1277;22747;-76
2023/12/11 09:23:34;;;;;;;17.10;10.20;;;;;;;1.81;80.98;95317.34;106694;1277;22785;-75
2023/12/11 09:26:03;;;;;;;15.20;9.50;;;;;;;1.75;81.43;95319.02;106741;1277;22554;-76
2023/12/11 09:28:31;;;;;;;19.50;12.20;;;;;;;1.72;81.57;95321.94;106750;1277;24457;-76
2023/12/11 09:31:11;;;;;;;17.90;11.00;;;;;;;1.75;81.89;95321.27;106740;1277;22531;-77
2023/12/11 09:33:40;;;;;;;17.00;10.40;;;;;;;1.79;82.02;95325.29;106707;1277;22953;-77
2023/12/11 09:36:09;;;;;;;19.10;10.80;;;;;;;1.79;81.83;95327.38;106914;1277;22796;-78
2023/12/11 09:38:37;;;;;;;18.40;11.70;;;;;;;1.78;81.95;95324.77;106699;1277;24231;-77
2023/12/11 09:41:07;;;;;;;20.80;12.20;;;;;;;1.77;82.09;95323.20;106834;1259;24275;-80
2023/12/11 09:43:36;;;;;;;20.40;11.80;;;;;;;1.75;82.10;95318.31;106927;1277;22529;-77
2023/12/11 09:46:12;;;;;;;20.90;13.30;;;;;;;1.72;82.21;95304.93;106932;1265;23119;-74
2023/12/11 09:48:40;;;;;;;26.60;15.40;;;;;;;1.67;82.15;95294.31;107108;1277;22552;-77
2023/12/11 09:51:12;;;;;;;19.30;11.50;;;;;;;1.61;82.21;95301.52;106925;1277;22540;-77
2023/12/11 09:53:41;;;;;;;22.80;13.60;;;;;;;1.52;82.43;95300.20;106632;1277;23031;-78
2023/12/11 09:56:12;;;;;;;30.80;19.00;;;;;;;1.45;82.80;95289.23;106766;1277;22559;-79
2023/12/11 09:58:43;;;;;;;30.00;18.80;;;;;;;1.44;83.01;95282.27;110006;1277;22555;-78
2023/12/11 10:01:13;;;;;;;29.10;18.50;;;;;;;1.51;83.15;95279.73;106692;1277;22535;-78
2023/12/11 10:03:41;;;;;;;26.10;15.20;;;;;;;1.61;83.33;95272.23;106759;1273;22537;-77
2023/12/11 10:06:10;;;;;;;30.80;17.60;;;;;;;1.72;83.45;95259.69;107321;1257;22608;-76
2023/12/11 10:08:52;;;;;;;24.50;15.00;;;;;;;1.85;83.43;95253.55;106660;1277;25257;-76
2023/12/11 10:11:22;;;;;;;31.40;17.70;;;;;;;1.92;83.34;95259.70;106733;1277;23368;-75
2023/12/11 10:13:50;;;;;;;31.10;16.00;;;;;;;2.01;83.38;95259.09;107067;1277;24265;-75
2023/12/11 10:16:35;;;;;;;27.30;16.40;;;;;;;2.06;82.90;95259.30;106559;1277;22545;-75
2023/12/11 10:19:03;;;;;;;30.90;17.50;;;;;;;2.22;82.72;95246.77;106656;1277;22539;-76
2023/12/11 10:21:40;;;;;;;30.20;17.00;;;;;;;2.39;82.54;95242.91;106903;1277;22522;-76
2023/12/11 10:24:14;;;;;;;31.00;17.80;;;;;;;2.55;81.63;95241.45;106877;1277;24550;-76
2023/12/11 10:26:52;;;;;;;27.00;16.30;;;;;;;2.62;81.59;95240.63;106790;1277;23894;-76
2023/12/11 10:29:23;;;;;;;31.30;17.90;;;;;;;2.75;81.03;95235.67;106607;1277;24456;-75
2023/12/11 10:31:59;;;;;;;27.80;16.70;;;;;;;2.83;81.03;95227.20;106564;1263;22665;-75
2023/12/11 10:34:45;;;;;;;28.20;17.20;;;;;;;2.91;80.86;95223.25;106525;1277;24522;-75
2023/12/11 10:37:14;;;;;;;27.30;15.70;;;;;;;3.02;80.51;95216.70;106526;1270;23075;-75
2023/12/11 10:39:56;;;;;;;23.30;15.60;;;;;;;3.30;81.01;95220.11;106448;1277;22549;-75
2023/12/11 10:42:25;;;;;;;25.70;15.20;;;;;;;3.60;79.83;95209.77;106638;1266;24473;-75
2023/12/11 10:44:55;;;;;;;25.30;15.60;;;;;;;3.84;79.40;95200.05;106498;1277;23125;-75
2023/12/11 10:47:24;;;;;;;29.00;16.80;;;;;;;4.05;76.77;95188.93;106472;1277;25451;-75
2023/12/11 10:49:52;;;;;;;24.30;14.80;;;;;;;4.26;76.86;95187.17;106712;1277;24064;-75
2023/12/11 10:52:21;;;;;;;23.80;14.50;;;;;;;4.36;75.52;95186.80;106450;1277;22533;-75
2023/12/11 10:54:49;;;;;;;26.30;15.90;;;;;;;4.32;74.42;95185.09;106564;1277;25432;-75
2023/12/11 10:57:19;;;;;;;24.90;15.10;;;;;;;4.77;75.54;95179.95;106537;1277;22549;-75
2023/12/11 10:59:50;;;;;;;25.80;16.60;;;;;;;5.40;73.23;95180.02;106585;1277;25552;-75
2023/12/11 11:02:22;;;;;;;28.30;18.20;;;;;;;5.83;70.88;95193.56;106563;1277;22538;-75
2023/12/11 11:04:51;;;;;;;28.40;18.50;;;;;;;6.09;68.94;95187.64;106591;1254;24262;-75
2023/12/11 11:07:28;;;;;;;28.00;16.00;;;;;;;6.56;69.59;95178.84;106519;1277;23896;-75
2023/12/11 11:10:20;;;;;;;26.20;18.00;;;;;;;7.05;67.94;95168.88;106683;1277;26631;-75
2023/12/11 11:12:58;;;;;;;22.30;14.20;;;;;;;7.37;68.00;95163.58;106532;1262;25461;-75
2023/12/11 11:15:27;;;;;;;28.70;17.20;;;;;;;7.83;67.70;95151.05;106489;1277;24228;-75
2023/12/11 11:17:56;;;;;;;31.00;17.30;;;;;;;8.30;65.18;95159.93;106571;1277;23928;-75
2023/12/11 11:20:35;;;;;;;21.40;15.30;;;;;;;8.31;61.11;95151.52;106724;1277;25403;-75